sensor_id;sensor_type;location;lat;lon;timestamp;pressure;altitude;pressure_sealevel;temperature;humidity
69689;BME280;56932;38.402;-96.176;2022-10-22T00:00:06;96377.49;;;21.81;27.15
69689;BME280;56932;38.402;-96.176;2022-10-22T00:02:29;96379.57;;;21.62;27.67
69689;BME280;56932;38.402;-96.176;2022-10-22T00:04:54;96381.61;;;21.29;28.48
69689;BME280;56932;38.402;-96.176;2022-10-22T00:07:20;96383.12;;;21.64;27.81
69689;BME280;56932;38.402;-96.176;2022-10-22T00:09:46;96380.07;;;22.32;27.26
69689;BME280;56932;38.402;-96.176;2022-10-22T00:12:12;96379.15;;;22.62;27.69
69689;BME280;56932;38.402;-96.176;2022-10-22T00:14:36;96381.52;;;22.48;27.85
69689;BME280;56932;38.402;-96.176;2022-10-22T00:17:02;96384.22;;;21.68;29.17
69689;BME280;56932;38.402;-96.176;2022-10-22T00:19:27;96384.97;;;22.54;28.40
69689;BME280;56932;38.402;-96.176;2022-10-22T00:21:53;96385.93;;;22.12;28.84
69689;BME280;56932;38.402;-96.176;2022-10-22T00:24:18;96387.78;;;21.20;29.57
69689;BME280;56932;38.402;-96.176;2022-10-22T00:26:44;96390.65;;;21.87;29.70
69689;BME280;56932;38.402;-96.176;2022-10-22T00:29:09;96390.54;;;22.56;28.98
69689;BME280;56932;38.402;-96.176;2022-10-22T00:31:34;96395.10;;;22.23;28.97
69689;BME280;56932;38.402;-96.176;2022-10-22T00:34:00;96397.29;;;22.53;28.96
69689;BME280;56932;38.402;-96.176;2022-10-22T00:36:25;96398.71;;;21.89;28.96
69689;BME280;56932;38.402;-96.176;2022-10-22T00:38:51;96399.38;;;23.07;28.23
69689;BME280;56932;38.402;-96.176;2022-10-22T00:41:17;96404.83;;;22.63;27.92
69689;BME280;56932;38.402;-96.176;2022-10-22T00:46:07;96407.63;;;21.72;29.47
69689;BME280;56932;38.402;-96.176;2022-10-22T00:48:33;96406.53;;;21.94;29.19
69689;BME280;56932;38.402;-96.176;2022-10-22T00:51:02;96410.09;;;21.70;29.20
69689;BME280;56932;38.402;-96.176;2022-10-22T00:53:27;96411.81;;;22.92;27.61
69689;BME280;56932;38.402;-96.176;2022-10-22T00:55:51;96411.22;;;22.17;28.82
69689;BME280;56932;38.402;-96.176;2022-10-22T00:58:16;96408.45;;;21.90;28.54
69689;BME280;56932;38.402;-96.176;2022-10-22T01:00:41;96410.23;;;21.79;29.15
69689;BME280;56932;38.402;-96.176;2022-10-22T01:03:06;96410.86;;;23.00;27.83
69689;BME280;56932;38.402;-96.176;2022-10-22T01:05:39;96412.45;;;22.04;28.29
69689;BME280;56932;38.402;-96.176;2022-10-22T01:07:57;96410.89;;;22.05;28.65
69689;BME280;56932;38.402;-96.176;2022-10-22T01:10:34;96410.11;;;21.24;29.17
69689;BME280;56932;38.402;-96.176;2022-10-22T01:12:54;96407.10;;;21.97;28.89
69689;BME280;56932;38.402;-96.176;2022-10-22T01:15:21;96411.08;;;21.77;28.64
69689;BME280;56932;38.402;-96.176;2022-10-22T01:17:46;96406.56;;;21.47;29.52
69689;BME280;56932;38.402;-96.176;2022-10-22T01:20:14;96412.22;;;21.84;29.13
69689;BME280;56932;38.402;-96.176;2022-10-22T01:22:34;96412.63;;;23.42;27.20
69689;BME280;56932;38.402;-96.176;2022-10-22T01:24:58;96411.79;;;23.04;27.58
69689;BME280;56932;38.402;-96.176;2022-10-22T01:27:28;96404.00;;;22.08;28.30
69689;BME280;56932;38.402;-96.176;2022-10-22T01:29:48;96407.16;;;22.49;28.13
69689;BME280;56932;38.402;-96.176;2022-10-22T01:32:15;96404.70;;;21.57;29.32
69689;BME280;56932;38.402;-96.176;2022-10-22T01:34:40;96403.27;;;21.49;29.41
69689;BME280;56932;38.402;-96.176;2022-10-22T01:37:03;96402.83;;;22.41;28.41
69689;BME280;56932;38.402;-96.176;2022-10-22T01:39:30;96405.55;;;21.40;28.93
69689;BME280;56932;38.402;-96.176;2022-10-22T01:41:55;96404.93;;;22.07;28.68
69689;BME280;56932;38.402;-96.176;2022-10-22T01:44:25;96407.84;;;22.17;28.37
69689;BME280;56932;38.402;-96.176;2022-10-22T01:46:47;96406.79;;;21.90;28.63
69689;BME280;56932;38.402;-96.176;2022-10-22T01:49:15;96406.63;;;21.34;29.40
69689;BME280;56932;38.402;-96.176;2022-10-22T01:51:47;96407.73;;;21.51;29.17
69689;BME280;56932;38.402;-96.176;2022-10-22T01:54:06;96411.14;;;22.21;28.43
69689;BME280;56932;38.402;-96.176;2022-10-22T01:56:38;96411.58;;;22.00;28.53
69689;BME280;56932;38.402;-96.176;2022-10-22T01:58:58;96409.83;;;22.81;27.75
69689;BME280;56932;38.402;-96.176;2022-10-22T02:01:23;96410.67;;;20.89;29.24
69689;BME280;56932;38.402;-96.176;2022-10-22T02:03:47;96412.52;;;21.97;28.39
69689;BME280;56932;38.402;-96.176;2022-10-22T02:06:16;96412.52;;;22.12;28.39
69689;BME280;56932;38.402;-96.176;2022-10-22T02:08:35;96409.76;;;21.91;28.65
69689;BME280;56932;38.402;-96.176;2022-10-22T02:11:00;96413.50;;;22.16;28.32
69689;BME280;56932;38.402;-96.176;2022-10-22T02:13:28;96414.13;;;21.93;28.09
69689;BME280;56932;38.402;-96.176;2022-10-22T02:15:52;96415.79;;;21.83;28.71
69689;BME280;56932;38.402;-96.176;2022-10-22T02:18:18;96418.15;;;21.36;28.58
69689;BME280;56932;38.402;-96.176;2022-10-22T02:20:42;96417.46;;;21.64;28.83
69689;BME280;56932;38.402;-96.176;2022-10-22T02:23:08;96416.88;;;21.41;29.08
69689;BME280;56932;38.402;-96.176;2022-10-22T02:25:36;96419.40;;;21.08;29.47
69689;BME280;56932;38.402;-96.176;2022-10-22T02:28:02;96419.42;;;21.92;28.63
69689;BME280;56932;38.402;-96.176;2022-10-22T02:30:24;96424.40;;;20.94;29.43
69689;BME280;56932;38.402;-96.176;2022-10-22T02:32:52;96422.51;;;21.97;28.54
69689;BME280;56932;38.402;-96.176;2022-10-22T02:35:18;96420.69;;;21.47;28.57
69689;BME280;56932;38.402;-96.176;2022-10-22T02:37:41;96421.78;;;21.61;28.87
69689;BME280;56932;38.402;-96.176;2022-10-22T02:40:06;96420.44;;;22.38;27.99
69689;BME280;56932;38.402;-96.176;2022-10-22T02:42:32;96416.19;;;21.06;29.37
69689;BME280;56932;38.402;-96.176;2022-10-22T02:44:57;96417.92;;;22.27;28.14
69689;BME280;56932;38.402;-96.176;2022-10-22T02:47:22;96418.65;;;21.53;28.68
69689;BME280;56932;38.402;-96.176;2022-10-22T02:49:48;96413.76;;;21.04;29.48
69689;BME280;56932;38.402;-96.176;2022-10-22T02:52:14;96413.90;;;20.72;29.86
69689;BME280;56932;38.402;-96.176;2022-10-22T02:54:39;96414.76;;;21.80;28.65
69689;BME280;56932;38.402;-96.176;2022-10-22T02:57:04;96415.43;;;22.02;28.40
69689;BME280;56932;38.402;-96.176;2022-10-22T02:59:30;96417.68;;;21.86;28.56
69689;BME280;56932;38.402;-96.176;2022-10-22T03:01:55;96416.51;;;21.94;28.75
69689;BME280;56932;38.402;-96.176;2022-10-22T03:04:21;96419.44;;;21.38;29.00
69689;BME280;56932;38.402;-96.176;2022-10-22T03:06:46;96420.62;;;21.10;29.23
69689;BME280;56932;38.402;-96.176;2022-10-22T03:09:12;96426.91;;;22.06;28.25
69689;BME280;56932;38.402;-96.176;2022-10-22T03:11:37;96430.19;;;21.21;29.08
69689;BME280;56932;38.402;-96.176;2022-10-22T03:14:03;96429.67;;;21.68;28.94
69689;BME280;56932;38.402;-96.176;2022-10-22T03:16:28;96434.41;;;21.33;29.11
69689;BME280;56932;38.402;-96.176;2022-10-22T03:18:54;96432.60;;;22.46;27.98
69689;BME280;56932;38.402;-96.176;2022-10-22T03:21:27;96429.33;;;21.48;28.72
69689;BME280;56932;38.402;-96.176;2022-10-22T03:23:45;96428.92;;;20.93;29.60
69689;BME280;56932;38.402;-96.176;2022-10-22T03:26:12;96430.46;;;20.95;29.89
69689;BME280;56932;38.402;-96.176;2022-10-22T03:28:36;96430.07;;;21.06;29.43
69689;BME280;56932;38.402;-96.176;2022-10-22T03:31:01;96430.63;;;21.05;30.03
69689;BME280;56932;38.402;-96.176;2022-10-22T03:33:27;96430.67;;;20.48;30.09
69689;BME280;56932;38.402;-96.176;2022-10-22T03:35:52;96431.85;;;20.97;29.52
69689;BME280;56932;38.402;-96.176;2022-10-22T03:38:18;96434.42;;;20.26;29.79
69689;BME280;56932;38.402;-96.176;2022-10-22T03:40:44;96437.51;;;21.28;29.15
69689;BME280;56932;38.402;-96.176;2022-10-22T03:43:09;96438.93;;;21.39;29.04
69689;BME280;56932;38.402;-96.176;2022-10-22T03:45:34;96441.90;;;21.82;28.59
69689;BME280;56932;38.402;-96.176;2022-10-22T03:48:00;96441.28;;;21.75;29.13
69689;BME280;56932;38.402;-96.176;2022-10-22T03:50:25;96440.13;;;21.31;29.09
69689;BME280;56932;38.402;-96.176;2022-10-22T03:52:51;96435.89;;;21.33;28.83
69689;BME280;56932;38.402;-96.176;2022-10-22T03:55:17;96436.40;;;20.93;28.85
69689;BME280;56932;38.402;-96.176;2022-10-22T03:57:42;96432.82;;;21.70;28.39
69689;BME280;56932;38.402;-96.176;2022-10-22T04:00:08;96433.03;;;21.54;28.84
69689;BME280;56932;38.402;-96.176;2022-10-22T04:02:33;96432.13;;;22.61;27.67
69689;BME280;56932;38.402;-96.176;2022-10-22T04:04:58;96430.64;;;21.20;29.15
69689;BME280;56932;38.402;-96.176;2022-10-22T04:07:24;96425.99;;;21.79;28.52
69689;BME280;56932;38.402;-96.176;2022-10-22T04:09:49;96423.62;;;21.08;29.30
69689;BME280;56932;38.402;-96.176;2022-10-22T04:12:15;96419.21;;;21.05;28.82
69689;BME280;56932;38.402;-96.176;2022-10-22T04:14:40;96415.36;;;21.05;29.30
69689;BME280;56932;38.402;-96.176;2022-10-22T04:17:05;96415.47;;;22.31;27.95
69689;BME280;56932;38.402;-96.176;2022-10-22T04:19:31;96409.66;;;21.65;28.35
69689;BME280;56932;38.402;-96.176;2022-10-22T04:21:57;96412.30;;;22.01;28.26
69689;BME280;56932;38.402;-96.176;2022-10-22T04:24:22;96411.34;;;21.67;28.58
69689;BME280;56932;38.402;-96.176;2022-10-22T04:26:47;96407.88;;;21.32;28.99
69689;BME280;56932;38.402;-96.176;2022-10-22T04:29:13;96415.60;;;20.96;29.37
69689;BME280;56932;38.402;-96.176;2022-10-22T04:31:38;96415.22;;;21.12;29.49
69689;BME280;56932;38.402;-96.176;2022-10-22T04:34:04;96417.66;;;21.98;28.83
69689;BME280;56932;38.402;-96.176;2022-10-22T04:36:29;96409.62;;;21.79;28.41
69689;BME280;56932;38.402;-96.176;2022-10-22T04:38:56;96404.64;;;22.00;28.16
69689;BME280;56932;38.402;-96.176;2022-10-22T04:41:23;96403.49;;;21.09;28.94
69689;BME280;56932;38.402;-96.176;2022-10-22T04:43:46;96399.31;;;21.78;28.35
69689;BME280;56932;38.402;-96.176;2022-10-22T04:46:13;96400.82;;;21.73;28.45
69689;BME280;56932;38.402;-96.176;2022-10-22T04:48:38;96402.02;;;22.01;28.13
69689;BME280;56932;38.402;-96.176;2022-10-22T04:51:03;96399.45;;;20.81;29.69
69689;BME280;56932;38.402;-96.176;2022-10-22T04:53:27;96403.22;;;21.66;28.61
69689;BME280;56932;38.402;-96.176;2022-10-22T04:55:53;96401.16;;;21.12;29.40
69689;BME280;56932;38.402;-96.176;2022-10-22T04:58:18;96394.28;;;20.48;29.86
69689;BME280;56932;38.402;-96.176;2022-10-22T05:00:44;96398.24;;;21.37;28.68
69689;BME280;56932;38.402;-96.176;2022-10-22T05:03:09;96396.21;;;21.78;29.01
69689;BME280;56932;38.402;-96.176;2022-10-22T05:05:35;96395.25;;;21.67;28.54
69689;BME280;56932;38.402;-96.176;2022-10-22T05:08:00;96384.58;;;21.15;29.14
69689;BME280;56932;38.402;-96.176;2022-10-22T05:10:26;96385.68;;;21.67;28.51
69689;BME280;56932;38.402;-96.176;2022-10-22T05:12:52;96382.11;;;21.75;28.45
69689;BME280;56932;38.402;-96.176;2022-10-22T05:15:18;96377.42;;;21.57;28.09
69689;BME280;56932;38.402;-96.176;2022-10-22T05:17:43;96372.56;;;21.27;28.94
69689;BME280;56932;38.402;-96.176;2022-10-22T05:20:09;96366.38;;;21.53;28.66
69689;BME280;56932;38.402;-96.176;2022-10-22T05:22:34;96365.32;;;21.36;28.84
69689;BME280;56932;38.402;-96.176;2022-10-22T05:24:59;96362.56;;;22.11;27.99
69689;BME280;56932;38.402;-96.176;2022-10-22T05:27:25;96363.84;;;21.81;28.05
69689;BME280;56932;38.402;-96.176;2022-10-22T05:29:50;96363.14;;;21.75;28.38
69689;BME280;56932;38.402;-96.176;2022-10-22T05:32:16;96357.73;;;20.74;29.56
69689;BME280;56932;38.402;-96.176;2022-10-22T05:34:41;96358.11;;;20.95;29.27
69689;BME280;56932;38.402;-96.176;2022-10-22T05:37:07;96356.00;;;21.06;29.21
69689;BME280;56932;38.402;-96.176;2022-10-22T05:39:32;96355.77;;;21.89;28.35
69689;BME280;56932;38.402;-96.176;2022-10-22T05:41:58;96351.04;;;21.21;29.32
69689;BME280;56932;38.402;-96.176;2022-10-22T05:44:23;96350.96;;;21.61;28.61
69689;BME280;56932;38.402;-96.176;2022-10-22T05:46:49;96347.79;;;20.91;29.33
69689;BME280;56932;38.402;-96.176;2022-10-22T05:49:15;96346.08;;;21.69;28.53
69689;BME280;56932;38.402;-96.176;2022-10-22T05:51:40;96342.17;;;21.48;28.64
69689;BME280;56932;38.402;-96.176;2022-10-22T05:54:07;96341.71;;;21.44;28.72
69689;BME280;56932;38.402;-96.176;2022-10-22T05:56:31;96332.98;;;20.81;29.17
69689;BME280;56932;38.402;-96.176;2022-10-22T05:58:57;96335.76;;;21.63;28.98
69689;BME280;56932;38.402;-96.176;2022-10-22T06:01:23;96329.45;;;21.18;28.90
69689;BME280;56932;38.402;-96.176;2022-10-22T06:03:48;96329.25;;;21.54;28.51
69689;BME280;56932;38.402;-96.176;2022-10-22T06:06:18;96327.74;;;20.61;29.48
69689;BME280;56932;38.402;-96.176;2022-10-22T06:08:38;96324.87;;;21.13;28.93
69689;BME280;56932;38.402;-96.176;2022-10-22T06:11:04;96326.07;;;21.02;29.63
69689;BME280;56932;38.402;-96.176;2022-10-22T06:13:29;96326.14;;;20.88;29.15
69689;BME280;56932;38.402;-96.176;2022-10-22T06:15:55;96327.89;;;21.86;28.07
69689;BME280;56932;38.402;-96.176;2022-10-22T06:18:20;96326.97;;;21.92;28.06
69689;BME280;56932;38.402;-96.176;2022-10-22T06:20:46;96324.91;;;21.81;28.14
69689;BME280;56932;38.402;-96.176;2022-10-22T06:23:12;96320.30;;;21.31;29.18
69689;BME280;56932;38.402;-96.176;2022-10-22T06:25:37;96319.19;;;20.95;29.03
69689;BME280;56932;38.402;-96.176;2022-10-22T06:28:02;96315.42;;;21.59;28.32
69689;BME280;56932;38.402;-96.176;2022-10-22T06:30:28;96314.82;;;21.28;28.62
69689;BME280;56932;38.402;-96.176;2022-10-22T06:32:53;96314.30;;;21.67;28.23
69689;BME280;56932;38.402;-96.176;2022-10-22T06:35:19;96310.39;;;20.86;29.07
69689;BME280;56932;38.402;-96.176;2022-10-22T06:37:44;96313.90;;;21.34;28.56
69689;BME280;56932;38.402;-96.176;2022-10-22T06:40:11;96315.42;;;21.09;29.36
69689;BME280;56932;38.402;-96.176;2022-10-22T06:42:35;96312.62;;;21.38;28.48
69689;BME280;56932;38.402;-96.176;2022-10-22T06:45:01;96311.73;;;21.19;29.29
69689;BME280;56932;38.402;-96.176;2022-10-22T06:47:27;96310.06;;;20.88;29.12
69689;BME280;56932;38.402;-96.176;2022-10-22T06:49:52;96306.50;;;21.26;28.96
69689;BME280;56932;38.402;-96.176;2022-10-22T06:52:17;96303.94;;;20.58;29.34
69689;BME280;56932;38.402;-96.176;2022-10-22T06:54:43;96300.18;;;20.74;29.22
69689;BME280;56932;38.402;-96.176;2022-10-22T06:57:09;96297.04;;;22.03;28.06
69689;BME280;56932;38.402;-96.176;2022-10-22T06:59:34;96295.79;;;22.04;27.72
69689;BME280;56932;38.402;-96.176;2022-10-22T07:01:59;96291.94;;;21.44;28.37
69689;BME280;56932;38.402;-96.176;2022-10-22T07:04:25;96291.73;;;21.13;28.44
69689;BME280;56932;38.402;-96.176;2022-10-22T07:06:51;96291.36;;;21.82;28.05
69689;BME280;56932;38.402;-96.176;2022-10-22T07:09:16;96287.26;;;20.11;29.83
69689;BME280;56932;38.402;-96.176;2022-10-22T07:11:43;96289.54;;;21.53;28.61
69689;BME280;56932;38.402;-96.176;2022-10-22T07:14:07;96289.06;;;21.06;29.31
69689;BME280;56932;38.402;-96.176;2022-10-22T07:16:32;96291.21;;;21.06;28.81
69689;BME280;56932;38.402;-96.176;2022-10-22T07:18:58;96284.84;;;21.23;28.65
69689;BME280;56932;38.402;-96.176;2022-10-22T07:21:23;96286.69;;;21.88;27.69
69689;BME280;56932;38.402;-96.176;2022-10-22T07:23:49;96286.05;;;21.49;28.58
69689;BME280;56932;38.402;-96.176;2022-10-22T07:26:16;96281.16;;;21.32;28.52
69689;BME280;56932;38.402;-96.176;2022-10-22T07:28:40;96277.69;;;20.68;29.54
69689;BME280;56932;38.402;-96.176;2022-10-22T07:31:07;96275.87;;;20.91;29.50
69689;BME280;56932;38.402;-96.176;2022-10-22T07:33:31;96279.18;;;21.25;28.95
69689;BME280;56932;38.402;-96.176;2022-10-22T07:35:58;96274.48;;;21.31;28.63
69689;BME280;56932;38.402;-96.176;2022-10-22T07:38:22;96276.43;;;20.91;29.01
69689;BME280;56932;38.402;-96.176;2022-10-22T07:40:47;96277.24;;;21.23;28.73
69689;BME280;56932;38.402;-96.176;2022-10-22T07:43:13;96272.66;;;21.07;29.16
69689;BME280;56932;38.402;-96.176;2022-10-22T07:45:39;96269.93;;;21.86;28.05
69689;BME280;56932;38.402;-96.176;2022-10-22T07:48:05;96265.42;;;20.89;29.45
69689;BME280;56932;38.402;-96.176;2022-10-22T07:50:30;96268.35;;;21.34;28.54
69689;BME280;56932;38.402;-96.176;2022-10-22T07:52:55;96268.81;;;20.48;29.96
69689;BME280;56932;38.402;-96.176;2022-10-22T07:55:21;96268.42;;;20.34;29.30
69689;BME280;56932;38.402;-96.176;2022-10-22T07:57:46;96267.26;;;22.41;27.88
69689;BME280;56932;38.402;-96.176;2022-10-22T08:00:15;96264.94;;;20.96;28.86
69689;BME280;56932;38.402;-96.176;2022-10-22T08:02:37;96259.43;;;21.47;28.33
69689;BME280;56932;38.402;-96.176;2022-10-22T08:05:03;96257.50;;;22.03;27.69
69689;BME280;56932;38.402;-96.176;2022-10-22T08:07:28;96257.17;;;21.20;28.87
69689;BME280;56932;38.402;-96.176;2022-10-22T08:09:54;96254.72;;;22.30;27.74
69689;BME280;56932;38.402;-96.176;2022-10-22T08:12:20;96249.67;;;21.09;28.67
69689;BME280;56932;38.402;-96.176;2022-10-22T08:14:45;96249.45;;;21.95;27.75
69689;BME280;56932;38.402;-96.176;2022-10-22T08:17:10;96238.18;;;21.29;28.37
69689;BME280;56932;38.402;-96.176;2022-10-22T08:19:36;96241.09;;;21.83;27.89
69689;BME280;56932;38.402;-96.176;2022-10-22T08:22:02;96237.32;;;20.53;29.53
69689;BME280;56932;38.402;-96.176;2022-10-22T08:24:27;96232.63;;;20.02;29.86
69689;BME280;56932;38.402;-96.176;2022-10-22T08:26:52;96225.20;;;21.07;29.27
69689;BME280;56932;38.402;-96.176;2022-10-22T08:29:18;96223.19;;;21.58;28.02
69689;BME280;56932;38.402;-96.176;2022-10-22T08:31:43;96219.32;;;21.08;28.97
69689;BME280;56932;38.402;-96.176;2022-10-22T08:34:09;96217.23;;;21.31;28.40
69689;BME280;56932;38.402;-96.176;2022-10-22T08:36:34;96215.77;;;20.99;28.84
69689;BME280;56932;38.402;-96.176;2022-10-22T08:39:00;96213.45;;;20.65;29.44
69689;BME280;56932;38.402;-96.176;2022-10-22T08:41:25;96206.47;;;20.12;29.83
69689;BME280;56932;38.402;-96.176;2022-10-22T08:46:28;96204.94;;;21.14;28.18
69689;BME280;56932;38.402;-96.176;2022-10-22T08:48:45;96199.42;;;20.95;28.92
69689;BME280;56932;38.402;-96.176;2022-10-22T08:51:11;96198.75;;;21.16;28.74
69689;BME280;56932;38.402;-96.176;2022-10-22T08:53:40;96199.24;;;20.48;29.38
69689;BME280;56932;38.402;-96.176;2022-10-22T08:55:59;96189.90;;;20.89;28.98
69689;BME280;56932;38.402;-96.176;2022-10-22T08:58:30;96189.36;;;20.50;29.38
69689;BME280;56932;38.402;-96.176;2022-10-22T09:00:57;96196.16;;;22.00;27.81
69689;BME280;56932;38.402;-96.176;2022-10-22T09:03:26;96191.09;;;22.08;27.66
69689;BME280;56932;38.402;-96.176;2022-10-22T09:05:47;96186.92;;;20.44;29.37
69689;BME280;56932;38.402;-96.176;2022-10-22T09:08:09;96182.01;;;21.04;29.18
69689;BME280;56932;38.402;-96.176;2022-10-22T09:10:35;96182.43;;;21.47;28.75
69689;BME280;56932;38.402;-96.176;2022-10-22T09:12:57;96173.34;;;21.21;28.96
69689;BME280;56932;38.402;-96.176;2022-10-22T09:15:23;96168.81;;;20.41;29.37
69689;BME280;56932;38.402;-96.176;2022-10-22T09:17:57;96166.53;;;22.26;27.65
69689;BME280;56932;38.402;-96.176;2022-10-22T09:20:19;96166.50;;;21.29;28.20
69689;BME280;56932;38.402;-96.176;2022-10-22T09:22:42;96167.96;;;22.20;27.49
69689;BME280;56932;38.402;-96.176;2022-10-22T09:25:15;96162.51;;;20.95;28.98
69689;BME280;56932;38.402;-96.176;2022-10-22T09:27:30;96173.35;;;21.36;28.34
69689;BME280;56932;38.402;-96.176;2022-10-22T09:29:56;96169.83;;;22.26;27.38
69689;BME280;56932;38.402;-96.176;2022-10-22T09:32:22;96167.86;;;21.29;27.79
69689;BME280;56932;38.402;-96.176;2022-10-22T09:34:49;96168.35;;;21.12;28.50
69689;BME280;56932;38.402;-96.176;2022-10-22T09:37:16;96166.18;;;20.95;28.93
69689;BME280;56932;38.402;-96.176;2022-10-22T09:39:40;96173.57;;;22.26;27.34
69689;BME280;56932;38.402;-96.176;2022-10-22T09:42:04;96174.01;;;21.49;28.10
69689;BME280;56932;38.402;-96.176;2022-10-22T09:44:32;96175.54;;;21.20;28.39
69689;BME280;56932;38.402;-96.176;2022-10-22T09:46:54;96175.04;;;20.86;29.04
69689;BME280;56932;38.402;-96.176;2022-10-22T09:49:22;96175.88;;;20.44;29.00
69689;BME280;56932;38.402;-96.176;2022-10-22T09:51:50;96180.02;;;21.22;28.46
69689;BME280;56932;38.402;-96.176;2022-10-22T09:54:16;96180.85;;;21.24;28.67
69689;BME280;56932;38.402;-96.176;2022-10-22T09:56:39;96185.82;;;21.75;27.78
69689;BME280;56932;38.402;-96.176;2022-10-22T09:59:02;96190.05;;;21.41;28.10
69689;BME280;56932;38.402;-96.176;2022-10-22T10:01:30;96183.82;;;20.40;29.15
69689;BME280;56932;38.402;-96.176;2022-10-22T10:03:53;96186.17;;;21.51;27.99
69689;BME280;56932;38.402;-96.176;2022-10-22T10:06:21;96186.96;;;20.76;28.28
69689;BME280;56932;38.402;-96.176;2022-10-22T10:08:44;96184.34;;;21.38;28.05
69689;BME280;56932;38.402;-96.176;2022-10-22T10:11:14;96184.52;;;20.84;28.71
69689;BME280;56932;38.402;-96.176;2022-10-22T10:13:44;96185.81;;;21.31;28.22
69689;BME280;56932;38.402;-96.176;2022-10-22T10:16:07;96189.63;;;21.56;28.19
69689;BME280;56932;38.402;-96.176;2022-10-22T10:18:33;96185.64;;;21.95;27.30
69689;BME280;56932;38.402;-96.176;2022-10-22T10:20:57;96183.75;;;21.28;28.77
69689;BME280;56932;38.402;-96.176;2022-10-22T10:23:22;96187.58;;;20.07;28.98
69689;BME280;56932;38.402;-96.176;2022-10-22T10:25:50;96191.48;;;20.72;29.10
69689;BME280;56932;38.402;-96.176;2022-10-22T10:28:22;96189.17;;;20.61;29.65
69689;BME280;56932;38.402;-96.176;2022-10-22T10:30:38;96193.42;;;20.98;28.55
69689;BME280;56932;38.402;-96.176;2022-10-22T10:33:09;96197.79;;;21.94;27.49
69689;BME280;56932;38.402;-96.176;2022-10-22T10:35:27;96199.01;;;20.86;28.65
69689;BME280;56932;38.402;-96.176;2022-10-22T10:37:59;96205.00;;;21.43;28.06
69689;BME280;56932;38.402;-96.176;2022-10-22T10:40:26;96208.97;;;20.09;29.22
69689;BME280;56932;38.402;-96.176;2022-10-22T10:42:43;96208.37;;;21.30;28.13
69689;BME280;56932;38.402;-96.176;2022-10-22T10:45:15;96206.02;;;21.37;28.54
69689;BME280;56932;38.402;-96.176;2022-10-22T10:47:48;96213.83;;;21.72;27.74
69689;BME280;56932;38.402;-96.176;2022-10-22T10:52:28;96207.22;;;20.64;28.93
69689;BME280;56932;38.402;-96.176;2022-10-22T10:54:56;96209.34;;;21.30;28.82
69689;BME280;56932;38.402;-96.176;2022-10-22T10:57:27;96211.12;;;20.61;28.98
69689;BME280;56932;38.402;-96.176;2022-10-22T10:59:48;96212.08;;;21.69;27.90
69689;BME280;56932;38.402;-96.176;2022-10-22T11:06:59;96211.37;;;21.07;28.43
69689;BME280;56932;38.402;-96.176;2022-10-22T11:09:24;96213.92;;;21.10;28.28
69689;BME280;56932;38.402;-96.176;2022-10-22T11:11:49;96214.95;;;21.22;28.88
69689;BME280;56932;38.402;-96.176;2022-10-22T11:14:18;96213.96;;;21.17;28.46
69689;BME280;56932;38.402;-96.176;2022-10-22T11:16:43;96219.66;;;21.79;27.81
69689;BME280;56932;38.402;-96.176;2022-10-22T11:19:08;96220.88;;;20.93;29.05
69689;BME280;56932;38.402;-96.176;2022-10-22T11:21:33;96223.55;;;21.63;28.08
69689;BME280;56932;38.402;-96.176;2022-10-22T11:23:59;96214.27;;;21.43;28.46
69689;BME280;56932;38.402;-96.176;2022-10-22T11:26:35;96211.29;;;21.76;27.83
69689;BME280;56932;38.402;-96.176;2022-10-22T11:28:49;96216.42;;;22.26;27.59
69689;BME280;56932;38.402;-96.176;2022-10-22T11:31:14;96214.36;;;21.49;28.34
69689;BME280;56932;38.402;-96.176;2022-10-22T11:33:41;96216.98;;;21.24;28.29
69689;BME280;56932;38.402;-96.176;2022-10-22T11:36:03;96220.30;;;21.20;28.36
69689;BME280;56932;38.402;-96.176;2022-10-22T11:38:28;96221.82;;;21.71;27.81
69689;BME280;56932;38.402;-96.176;2022-10-22T11:40:58;96216.16;;;20.87;28.65
69689;BME280;56932;38.402;-96.176;2022-10-22T11:43:26;96222.17;;;21.02;27.99
69689;BME280;56932;38.402;-96.176;2022-10-22T11:45:49;96224.77;;;22.29;27.19
69689;BME280;56932;38.402;-96.176;2022-10-22T11:48:15;96227.24;;;21.67;28.01
69689;BME280;56932;38.402;-96.176;2022-10-22T11:50:45;96229.99;;;21.37;27.98
69689;BME280;56932;38.402;-96.176;2022-10-22T11:53:02;96230.46;;;22.65;27.25
69689;BME280;56932;38.402;-96.176;2022-10-22T11:55:33;96223.02;;;21.20;28.17
69689;BME280;56932;38.402;-96.176;2022-10-22T11:57:52;96219.84;;;21.53;27.81
69689;BME280;56932;38.402;-96.176;2022-10-22T12:02:43;96221.00;;;20.82;28.59
69689;BME280;56932;38.402;-96.176;2022-10-22T12:07:46;96217.53;;;21.40;27.98
69689;BME280;56932;38.402;-96.176;2022-10-22T12:09:59;96218.77;;;21.64;27.92
69689;BME280;56932;38.402;-96.176;2022-10-22T12:12:24;96218.69;;;21.00;28.27
69689;BME280;56932;38.402;-96.176;2022-10-22T12:14:53;96219.51;;;20.83;28.41
69689;BME280;56932;38.402;-96.176;2022-10-22T12:17:17;96223.38;;;21.53;27.47
69689;BME280;56932;38.402;-96.176;2022-10-22T12:19:43;96219.11;;;21.55;27.90
69689;BME280;56932;38.402;-96.176;2022-10-22T12:22:13;96218.52;;;21.51;28.19
69689;BME280;56932;38.402;-96.176;2022-10-22T12:24:36;96216.29;;;20.94;28.21
69689;BME280;56932;38.402;-96.176;2022-10-22T12:26:57;96215.56;;;20.97;28.18
69689;BME280;56932;38.402;-96.176;2022-10-22T12:29:22;96219.23;;;21.08;28.10
69689;BME280;56932;38.402;-96.176;2022-10-22T12:31:48;96216.44;;;21.41;28.00
69689;BME280;56932;38.402;-96.176;2022-10-22T12:34:17;96219.63;;;21.32;27.82
69689;BME280;56932;38.402;-96.176;2022-10-22T12:36:39;96221.28;;;21.33;27.80
69689;BME280;56932;38.402;-96.176;2022-10-22T12:39:13;96222.15;;;21.18;27.97
69689;BME280;56932;38.402;-96.176;2022-10-22T12:41:31;96224.01;;;21.39;28.04
69689;BME280;56932;38.402;-96.176;2022-10-22T12:43:58;96221.50;;;21.35;27.97
69689;BME280;56932;38.402;-96.176;2022-10-22T12:46:21;96226.40;;;20.30;28.93